Time;durP1;ratioP1;P1;durP2;ratioP2;P2;SDS_P1;SDS_P2;PMS_P1;PMS_P2;Temp;Humidity;BMP_temperature;BMP_pressure;BME280_temperature;BME280_humidity;BME280_pressure;Samples;Min_cycle;Max_cycle;Signal;HPM_P1;HPM_P2
2021/08/12 00:02:02;;;;;;;2.60;2.40;;;24.00;59.70;;;;;;5130534;27;20196;-71
2021/08/12 00:04:34;;;;;;;2.60;2.40;;;24.00;59.60;;;;;;5113563;27;20315;-71
2021/08/12 00:07:03;;;;;;;2.50;2.30;;;24.00;59.60;;;;;;5130182;27;20266;-70
2021/08/12 00:09:34;;;;;;;2.50;2.30;;;24.00;59.60;;;;;;5130112;27;20706;-71
2021/08/12 00:12:03;;;;;;;2.60;2.40;;;24.00;59.60;;;;;;5139388;27;20288;-71
2021/08/12 00:14:35;;;;;;;2.70;2.50;;;24.00;59.60;;;;;;5129860;27;20873;-71
2021/08/12 00:17:09;;;;;;;2.50;2.30;;;24.00;59.60;;;;;;5129611;27;20541;-71
2021/08/12 00:19:38;;;;;;;2.33;2.23;;;24.00;59.60;;;;;;5106768;27;20220;-71
2021/08/12 00:22:11;;;;;;;2.57;2.37;;;24.00;59.60;;;;;;5120854;27;20214;-71
2021/08/12 00:24:42;;;;;;;2.70;2.50;;;24.00;59.70;;;;;;5121992;27;20202;-71
2021/08/12 00:27:11;;;;;;;2.80;2.60;;;23.90;59.60;;;;;;5134352;27;20191;-71
2021/08/12 00:29:43;;;;;;;2.47;2.27;;;24.00;59.60;;;;;;5128725;27;20200;-71
2021/08/12 00:32:12;;;;;;;2.60;2.40;;;23.90;59.50;;;;;;5129367;27;20203;-71
2021/08/12 00:34:43;;;;;;;2.60;2.40;;;23.90;59.60;;;;;;5111997;27;20184;-71
2021/08/12 00:37:15;;;;;;;2.67;2.47;;;23.90;59.50;;;;;;5127898;27;20200;-71
2021/08/12 00:39:46;;;;;;;2.50;2.30;;;23.90;59.60;;;;;;5130357;27;20188;-71
2021/08/12 00:42:23;;;;;;;2.53;2.33;;;23.90;59.50;;;;;;5111496;27;20195;-71
2021/08/12 00:44:54;;;;;;;2.50;2.30;;;23.90;59.60;;;;;;5129914;27;20663;-71
2021/08/12 00:47:24;;;;;;;2.97;2.77;;;23.90;59.50;;;;;;5130258;27;20210;-71
2021/08/12 00:49:55;;;;;;;2.67;2.47;;;23.80;59.50;;;;;;5129610;27;20219;-71
2021/08/12 00:52:27;;;;;;;2.90;2.70;;;23.90;59.50;;;;;;5128906;27;20207;-71
2021/08/12 00:55:00;;;;;;;2.57;2.37;;;23.90;59.50;;;;;;5111464;27;20202;-71
2021/08/12 00:57:35;;;;;;;2.70;2.50;;;23.90;59.50;;;;;;5113721;27;20218;-71
2021/08/12 01:00:08;;;;;;;3.00;2.80;;;23.80;59.50;;;;;;5111388;27;20199;-71
2021/08/12 01:02:40;;;;;;;2.33;2.13;;;23.80;59.50;;;;;;5128485;27;20207;-71
2021/08/12 01:05:12;;;;;;;2.97;2.77;;;23.80;59.40;;;;;;5129274;27;20417;-71
2021/08/12 01:08:11;;;;;;;2.63;2.43;;;23.80;59.40;;;;;;5129574;27;20541;-71
2021/08/12 01:11:16;;;;;;;3.00;2.70;;;23.80;59.50;;;;;;5121388;27;20218;-71
2021/08/12 01:14:16;;;;;;;2.80;2.60;;;23.80;59.40;;;;;;5118256;27;20407;-71
2021/08/12 01:16:56;;;;;;;2.80;2.60;;;23.80;59.50;;;;;;5111751;28;20214;-71
2021/08/12 01:20:18;;;;;;;2.50;2.30;;;23.80;59.50;;;;;;5112709;28;20198;-71
2021/08/12 01:22:49;;;;;;;2.63;2.43;;;23.80;59.50;;;;;;5089316;28;20550;-71
2021/08/12 01:25:26;;;;;;;2.53;2.33;;;23.80;59.50;;;;;;5109959;27;20199;-71
2021/08/12 01:27:59;;;;;;;3.00;2.77;;;23.80;59.50;;;;;;5130326;27;20304;-71
2021/08/12 01:30:44;;;;;;;2.60;2.40;;;23.70;59.40;;;;;;5124634;27;20217;-70
2021/08/12 01:33:53;;;;;;;2.70;2.50;;;23.70;59.40;;;;;;5128287;27;20211;-71
2021/08/12 01:36:46;;;;;;;2.70;2.50;;;23.70;59.50;;;;;;5128100;27;20248;-71
2021/08/12 01:39:17;;;;;;;2.90;2.70;;;23.70;60.10;;;;;;5128931;27;20625;-71
2021/08/12 01:41:52;;;;;;;2.60;2.40;;;23.70;59.50;;;;;;5130261;27;20678;-71
2021/08/12 01:44:33;;;;;;;2.60;2.40;;;23.70;59.50;;;;;;5130990;27;20542;-71
2021/08/12 01:47:07;;;;;;;2.60;2.40;;;23.70;59.50;;;;;;5133055;27;20691;-70
2021/08/12 01:49:49;;;;;;;2.50;2.30;;;23.70;59.40;;;;;;5132508;27;20659;-70
2021/08/12 01:52:28;;;;;;;2.37;2.17;;;23.70;59.40;;;;;;5133073;27;20597;-70
2021/08/12 01:55:09;;;;;;;2.73;2.53;;;23.70;59.50;;;;;;5115299;27;20187;-70
2021/08/12 01:57:45;;;;;;;2.77;2.57;;;23.60;59.40;;;;;;5115758;27;20812;-70
2021/08/12 02:00:17;;;;;;;2.77;2.47;;;23.70;59.40;;;;;;5117418;27;20202;-70
2021/08/12 02:02:46;;;;;;;2.60;2.40;;;23.60;59.40;;;;;;5132999;27;20203;-71
2021/08/12 02:05:28;;;;;;;2.60;2.40;;;23.70;59.40;;;;;;5116336;27;20196;-70
2021/08/12 02:08:01;;;;;;;2.60;2.40;;;23.70;59.40;;;;;;5131357;27;20223;-71
2021/08/12 02:10:35;;;;;;;2.60;2.40;;;23.60;59.40;;;;;;5133305;27;20219;-70
2021/08/12 02:13:18;;;;;;;2.77;2.57;;;23.60;59.30;;;;;;5117391;27;20211;-71
2021/08/12 02:15:51;;;;;;;2.47;2.27;;;23.60;59.30;;;;;;5132054;27;20184;-70
2021/08/12 02:18:24;;;;;;;2.90;2.70;;;23.60;59.30;;;;;;5132756;27;20234;-71
2021/08/12 02:21:14;;;;;;;2.90;2.70;;;23.60;59.30;;;;;;5115135;27;20188;-71
2021/08/12 02:24:15;;;;;;;2.40;2.27;;;23.60;59.30;;;;;;5131011;27;20199;-71
2021/08/12 02:26:55;;;;;;;2.13;2.03;;;23.60;59.30;;;;;;5112983;27;20187;-71
2021/08/12 02:29:32;;;;;;;2.47;2.27;;;23.60;59.30;;;;;;5115966;27;20203;-70
2021/08/12 02:32:05;;;;;;;2.80;2.60;;;23.60;59.30;;;;;;5113937;27;20207;-70
2021/08/12 02:34:43;;;;;;;2.67;2.47;;;23.60;59.30;;;;;;5128452;27;20569;-70
2021/08/12 02:37:45;;;;;;;2.60;2.40;;;23.60;59.30;;;;;;5107217;27;20534;-71
2021/08/12 02:40:14;;;;;;;2.50;2.30;;;23.50;59.20;;;;;;5134833;27;20187;-70
2021/08/12 02:42:48;;;;;;;2.60;2.37;;;23.60;59.30;;;;;;5138676;27;20248;-70
2021/08/12 02:45:19;;;;;;;2.37;2.17;;;23.50;59.20;;;;;;5115640;27;20192;-71
2021/08/12 02:47:50;;;;;;;2.40;2.20;;;23.60;59.30;;;;;;5131770;27;20192;-71
2021/08/12 02:50:43;;;;;;;2.83;2.63;;;23.50;59.20;;;;;;5132738;27;20234;-71
2021/08/12 02:53:17;;;;;;;2.67;2.47;;;23.50;59.20;;;;;;5113183;27;20223;-70
2021/08/12 02:55:46;;;;;;;2.60;2.40;;;23.50;59.20;;;;;;5128027;27;20822;-71
2021/08/12 02:58:15;;;;;;;2.57;2.37;;;23.50;59.20;;;;;;5130338;27;20665;-70
2021/08/12 03:00:44;;;;;;;3.20;2.93;;;23.50;59.20;;;;;;5097917;27;20191;-71
2021/08/12 03:03:12;;;;;;;2.67;2.47;;;23.50;59.20;;;;;;5114168;27;20199;-71
2021/08/12 03:05:41;;;;;;;3.00;2.40;;;23.50;59.20;;;;;;5112350;27;20226;-71
2021/08/12 03:08:14;;;;;;;2.83;2.63;;;23.50;59.20;;;;;;5131393;27;20223;-71
2021/08/12 03:10:43;;;;;;;2.63;2.43;;;23.50;59.10;;;;;;5119694;27;20192;-71
2021/08/12 03:13:13;;;;;;;2.53;2.33;;;23.50;59.20;;;;;;5114544;27;20216;-71
2021/08/12 03:15:44;;;;;;;2.57;2.37;;;23.50;59.10;;;;;;5131493;27;20199;-70
2021/08/12 03:18:13;;;;;;;2.40;2.20;;;23.50;59.10;;;;;;5096676;27;20223;-70
2021/08/12 03:20:44;;;;;;;3.00;2.80;;;23.50;59.10;;;;;;5113430;27;20203;-70
2021/08/12 03:23:12;;;;;;;2.57;2.37;;;23.50;59.10;;;;;;5130437;27;20646;-70
2021/08/12 03:25:41;;;;;;;2.60;2.40;;;23.50;59.10;;;;;;5122638;27;20214;-71
2021/08/12 03:28:12;;;;;;;2.60;2.40;;;23.40;59.10;;;;;;5130230;27;20195;-71
2021/08/12 03:30:43;;;;;;;2.87;2.67;;;23.40;59.10;;;;;;5132010;27;20203;-71
2021/08/12 03:33:14;;;;;;;2.73;2.53;;;23.40;59.10;;;;;;5130748;27;20202;-71
2021/08/12 03:35:43;;;;;;;2.70;2.50;;;23.40;59.10;;;;;;5131754;27;20285;-71
2021/08/12 03:38:13;;;;;;;2.70;2.50;;;23.40;59.10;;;;;;5131180;27;20200;-71
2021/08/12 03:40:41;;;;;;;2.57;2.37;;;23.40;59.10;;;;;;5131561;27;20196;-70
2021/08/12 03:43:13;;;;;;;2.70;2.50;;;23.40;59.00;;;;;;5126341;27;20244;-71
2021/08/12 03:45:42;;;;;;;2.73;2.53;;;23.40;59.10;;;;;;5131223;27;20195;-71
2021/08/12 03:48:13;;;;;;;2.77;2.57;;;23.40;59.10;;;;;;5131011;27;20227;-70
2021/08/12 03:50:43;;;;;;;2.80;2.60;;;23.40;59.10;;;;;;5130604;27;20598;-71
2021/08/12 03:53:24;;;;;;;2.57;2.37;;;23.40;59.10;;;;;;5130995;27;20219;-71
2021/08/12 03:55:59;;;;;;;2.53;2.33;;;23.40;59.10;;;;;;5131436;27;20215;-70
2021/08/12 03:58:29;;;;;;;2.70;2.50;;;23.40;59.10;;;;;;5130971;27;20187;-70
2021/08/12 04:01:11;;;;;;;2.87;2.67;;;23.40;59.10;;;;;;5130321;27;20672;-70
2021/08/12 04:03:43;;;;;;;2.60;2.40;;;23.40;59.00;;;;;;5131966;27;20211;-70
2021/08/12 04:06:15;;;;;;;2.57;2.37;;;23.40;59.00;;;;;;5139368;27;20262;-70
2021/08/12 04:08:43;;;;;;;2.80;2.60;;;23.30;58.90;;;;;;5108035;27;20232;-70
2021/08/12 04:11:19;;;;;;;2.80;2.60;;;23.30;58.90;;;;;;5119282;28;20264;-70
2021/08/12 04:13:49;;;;;;;2.43;2.23;;;23.40;59.00;;;;;;5109498;27;20240;-71
2021/08/12 04:16:20;;;;;;;3.10;2.73;;;23.30;58.90;;;;;;5105638;28;20196;-71
2021/08/12 04:18:50;;;;;;;2.63;2.43;;;23.30;58.90;;;;;;5110102;27;20767;-70
2021/08/12 04:21:19;;;;;;;2.60;2.40;;;23.30;58.90;;;;;;5116475;28;20204;-70
2021/08/12 04:23:50;;;;;;;3.03;2.73;;;23.30;58.90;;;;;;5112598;27;20200;-71
2021/08/12 04:26:27;;;;;;;3.03;2.73;;;23.30;58.90;;;;;;5114031;27;20208;-71
2021/08/12 04:28:57;;;;;;;2.20;2.10;;;23.30;58.90;;;;;;5109219;28;20230;-71
2021/08/12 04:31:29;;;;;;;2.70;2.50;;;23.30;58.80;;;;;;5108082;28;20196;-71
2021/08/12 04:34:00;;;;;;;2.60;2.40;;;23.30;58.80;;;;;;5109138;28;20619;-71
2021/08/12 04:36:28;;;;;;;2.70;2.50;;;23.30;58.80;;;;;;5110051;27;20222;-71
2021/08/12 04:38:59;;;;;;;2.70;2.50;;;23.30;58.80;;;;;;5110290;27;20403;-71
2021/08/12 04:41:30;;;;;;;2.43;2.23;;;23.30;58.80;;;;;;5107847;27;20216;-71
2021/08/12 04:44:02;;;;;;;2.50;2.30;;;23.30;58.80;;;;;;5113987;27;20192;-71
2021/08/12 04:46:34;;;;;;;2.80;2.60;;;23.20;58.70;;;;;;5109808;27;20204;-71
2021/08/12 04:49:03;;;;;;;2.83;2.63;;;23.20;58.70;;;;;;5109554;28;20207;-70
2021/08/12 04:51:31;;;;;;;3.03;2.70;;;23.30;58.80;;;;;;5108587;27;20192;-71
2021/08/12 04:54:02;;;;;;;2.70;2.50;;;23.20;58.70;;;;;;5120499;27;20209;-70
2021/08/12 04:56:33;;;;;;;2.53;2.33;;;23.20;58.70;;;;;;5109592;27;20211;-70
2021/08/12 04:59:05;;;;;;;2.90;2.70;;;23.20;58.60;;;;;;5109097;28;20254;-71
2021/08/12 05:01:42;;;;;;;2.80;2.60;;;23.20;58.70;;;;;;5108858;28;20200;-70
2021/08/12 05:04:11;;;;;;;2.53;2.33;;;23.20;58.70;;;;;;5110428;28;20265;-70
2021/08/12 05:06:44;;;;;;;3.10;2.90;;;23.20;58.60;;;;;;5113189;27;20246;-71
2021/08/12 05:09:15;;;;;;;2.83;2.60;;;23.20;58.60;;;;;;5125319;27;20351;-71
2021/08/12 05:11:45;;;;;;;2.73;2.53;;;23.20;58.60;;;;;;5129895;27;20275;-70
2021/08/12 05:14:15;;;;;;;3.23;2.97;;;23.20;58.60;;;;;;5130739;27;20227;-70
2021/08/12 05:16:46;;;;;;;3.73;2.83;;;23.20;58.60;;;;;;5130856;27;20203;-70
2021/08/12 05:19:15;;;;;;;2.87;2.67;;;23.20;58.60;;;;;;5129662;27;20287;-70
2021/08/12 05:21:49;;;;;;;2.87;2.67;;;23.20;58.60;;;;;;5129095;27;20282;-71
2021/08/12 05:24:17;;;;;;;3.10;2.90;;;23.20;58.50;;;;;;5128773;27;20305;-70
2021/08/12 05:26:48;;;;;;;3.00;2.70;;;23.20;58.50;;;;;;5130541;27;20613;-70
2021/08/12 05:29:18;;;;;;;4.03;2.70;;;23.20;58.50;;;;;;5129896;27;20214;-70
2021/08/12 05:31:48;;;;;;;2.97;2.77;;;23.20;58.50;;;;;;5129414;27;20620;-70
2021/08/12 05:34:19;;;;;;;2.97;2.73;;;23.20;58.50;;;;;;5129977;27;20219;-69
2021/08/12 05:36:50;;;;;;;3.27;2.97;;;23.20;58.50;;;;;;5111239;28;20219;-70
2021/08/12 05:39:23;;;;;;;2.83;2.63;;;23.10;58.40;;;;;;5129331;27;20200;-70
2021/08/12 05:41:52;;;;;;;3.17;2.97;;;23.20;58.40;;;;;;5130036;27;20717;-71
2021/08/12 05:44:23;;;;;;;3.20;2.93;;;23.20;58.50;;;;;;5111123;28;20226;-71
2021/08/12 05:46:55;;;;;;;2.67;2.47;;;23.20;58.40;;;;;;5129565;27;20231;-71
2021/08/12 05:49:25;;;;;;;3.70;2.83;;;23.10;58.40;;;;;;5128592;27;20196;-70
2021/08/12 05:51:56;;;;;;;3.03;2.80;;;23.10;58.40;;;;;;5130232;27;20206;-70
2021/08/12 05:54:30;;;;;;;3.00;2.80;;;23.10;58.40;;;;;;5109513;28;20216;-70
2021/08/12 05:57:02;;;;;;;4.13;2.80;;;23.20;58.40;;;;;;5128406;27;20613;-70
2021/08/12 05:59:36;;;;;;;3.37;3.07;;;23.10;58.30;;;;;;5136336;27;20187;-71
2021/08/12 06:02:08;;;;;;;3.10;2.80;;;23.20;58.30;;;;;;5110169;28;20192;-70
2021/08/12 06:04:39;;;;;;;3.30;2.70;;;23.10;58.30;;;;;;5128392;28;20188;-70
2021/08/12 06:07:12;;;;;;;3.10;2.60;;;23.10;58.30;;;;;;5128595;27;20585;-71
2021/08/12 06:09:42;;;;;;;2.83;2.63;;;23.20;58.20;;;;;;5084560;28;20247;-69
2021/08/12 06:12:11;;;;;;;3.00;2.80;;;23.10;58.20;;;;;;5085378;28;20741;-70
2021/08/12 06:14:43;;;;;;;3.10;2.80;;;23.10;58.20;;;;;;5086307;28;20224;-70
2021/08/12 06:17:10;;;;;;;3.10;2.80;;;23.10;58.20;;;;;;5079733;28;20193;-70
2021/08/12 06:19:41;;;;;;;3.57;3.27;;;23.10;58.20;;;;;;5078975;28;20727;-70
2021/08/12 06:22:12;;;;;;;3.13;2.93;;;23.20;58.20;;;;;;5082780;28;20837;-70
2021/08/12 06:24:45;;;;;;;3.47;3.17;;;23.20;58.20;;;;;;5086775;28;20201;-70
2021/08/12 06:27:17;;;;;;;2.90;2.70;;;23.10;58.10;;;;;;5075248;28;20205;-70
2021/08/12 06:29:48;;;;;;;3.40;3.00;;;23.10;58.20;;;;;;5083850;28;20883;-70
2021/08/12 06:32:19;;;;;;;3.33;3.10;;;23.10;58.10;;;;;;5071564;28;20209;-70
2021/08/12 06:35:06;;;;;;;3.03;2.83;;;23.10;58.20;;;;;;5086961;28;20296;-71
2021/08/12 06:37:51;;;;;;;3.43;3.00;;;23.10;58.10;;;;;;5073964;28;20283;-70
2021/08/12 06:40:23;;;;;;;3.30;3.00;;;23.10;58.10;;;;;;5081722;28;20205;-70
2021/08/12 06:42:54;;;;;;;3.27;2.97;;;23.10;58.10;;;;;;5089362;28;20251;-70
2021/08/12 06:45:25;;;;;;;3.20;3.00;;;23.10;58.10;;;;;;5063782;28;20232;-70
2021/08/12 06:47:58;;;;;;;3.00;2.80;;;23.10;58.10;;;;;;5081113;28;20189;-71
2021/08/12 06:50:27;;;;;;;3.50;3.20;;;23.10;58.10;;;;;;5078627;28;20210;-71
2021/08/12 06:52:59;;;;;;;3.57;3.10;;;23.10;58.10;;;;;;5090262;28;20212;-70
2021/08/12 06:55:30;;;;;;;3.07;2.87;;;23.10;58.10;;;;;;5074531;28;20898;-71
2021/08/12 06:58:02;;;;;;;3.10;2.83;;;23.10;58.10;;;;;;5086029;28;20209;-71
2021/08/12 07:00:36;;;;;;;3.17;2.87;;;23.10;58.10;;;;;;5082518;28;20375;-70
2021/08/12 07:03:06;;;;;;;3.33;3.10;;;23.10;58.10;;;;;;5089187;28;20193;-71
2021/08/12 07:05:35;;;;;;;3.10;2.90;;;23.10;58.10;;;;;;5078782;28;20201;-71
2021/08/12 07:08:08;;;;;;;3.10;2.90;;;23.10;58.10;;;;;;5093065;27;20240;-70
2021/08/12 07:10:40;;;;;;;3.00;2.80;;;23.10;58.10;;;;;;5111107;27;20204;-71
2021/08/12 07:13:23;;;;;;;3.10;2.90;;;23.10;58.10;;;;;;5117035;27;20286;-71
2021/08/12 07:15:52;;;;;;;3.00;2.80;;;23.20;58.20;;;;;;5113256;27;20220;-71
2021/08/12 07:18:26;;;;;;;3.37;3.07;;;23.10;58.10;;;;;;5111192;27;20600;-71
2021/08/12 07:20:58;;;;;;;3.40;3.10;;;23.10;58.10;;;;;;5111440;27;20188;-71
2021/08/12 07:23:30;;;;;;;3.50;3.20;;;23.10;58.10;;;;;;5119125;27;20207;-71
2021/08/12 07:26:04;;;;;;;3.40;2.90;;;23.10;58.10;;;;;;5113738;27;20637;-70
2021/08/12 07:28:43;;;;;;;3.63;3.33;;;23.10;58.10;;;;;;5110127;28;20212;-70
2021/08/12 07:31:17;;;;;;;3.47;3.17;;;23.10;58.10;;;;;;5109569;27;20203;-70
2021/08/12 07:33:50;;;;;;;3.50;3.20;;;23.10;58.10;;;;;;5106549;28;20185;-70
2021/08/12 07:36:20;;;;;;;3.53;3.20;;;23.10;58.10;;;;;;5111930;27;20668;-70
2021/08/12 07:38:53;;;;;;;3.40;3.10;;;23.10;58.10;;;;;;5101795;28;20207;-70
2021/08/12 07:41:41;;;;;;;3.43;3.13;;;23.20;58.10;;;;;;5110933;27;20571;-70
2021/08/12 07:44:17;;;;;;;3.00;2.80;;;23.10;58.10;;;;;;5109413;27;20200;-70
2021/08/12 07:46:48;;;;;;;3.70;3.40;;;23.10;58.10;;;;;;5109392;28;20547;-70
2021/08/12 07:49:19;;;;;;;4.03;3.70;;;23.10;58.20;;;;;;5111116;27;20211;-70
2021/08/12 07:51:50;;;;;;;3.83;3.53;;;23.20;58.20;;;;;;5096847;28;20208;-71
2021/08/12 07:54:19;;;;;;;3.80;3.50;;;23.20;58.20;;;;;;5109615;27;20208;-70
2021/08/12 07:56:49;;;;;;;4.03;3.70;;;23.20;58.30;;;;;;5110206;27;20525;-70
2021/08/12 07:59:21;;;;;;;4.13;3.80;;;23.20;58.40;;;;;;5110502;27;20200;-71
2021/08/12 08:01:53;;;;;;;4.40;4.00;;;23.20;58.40;;;;;;5109695;28;20730;-71
2021/08/12 08:04:24;;;;;;;3.80;3.50;;;23.20;58.40;;;;;;5109927;27;20277;-71
2021/08/12 08:06:55;;;;;;;3.93;3.63;;;23.20;58.40;;;;;;5114544;27;20285;-71
2021/08/12 08:09:24;;;;;;;4.27;3.90;;;23.20;58.50;;;;;;5129526;27;20296;-71
2021/08/12 08:11:53;;;;;;;3.87;3.50;;;23.20;58.50;;;;;;5131996;27;20201;-71
2021/08/12 08:14:24;;;;;;;3.73;3.43;;;23.20;58.60;;;;;;5112218;27;20204;-71
2021/08/12 08:16:56;;;;;;;4.00;3.63;;;23.20;58.50;;;;;;5129959;27;20218;-71
2021/08/12 08:19:29;;;;;;;3.67;3.33;;;23.20;58.60;;;;;;5129063;27;20525;-71
2021/08/12 08:21:59;;;;;;;4.20;3.80;;;23.20;58.70;;;;;;5113340;27;20435;-71
2021/08/12 08:24:29;;;;;;;4.07;3.67;;;23.20;58.60;;;;;;5114132;27;20196;-71
2021/08/12 08:26:59;;;;;;;4.10;3.70;;;23.20;58.70;;;;;;5129410;27;20191;-71
2021/08/12 08:29:27;;;;;;;3.73;3.33;;;23.20;58.70;;;;;;5129921;27;20205;-71
2021/08/12 08:31:58;;;;;;;3.60;3.40;;;23.20;58.80;;;;;;5112247;27;20338;-70
2021/08/12 08:34:28;;;;;;;4.10;3.70;;;23.30;58.80;;;;;;5129326;27;20723;-70
2021/08/12 08:36:58;;;;;;;4.10;3.70;;;23.20;58.80;;;;;;5130122;27;20641;-70
2021/08/12 08:39:31;;;;;;;4.07;3.70;;;23.30;58.80;;;;;;5128124;27;20224;-71
2021/08/12 08:42:03;;;;;;;3.60;3.30;;;23.30;58.80;;;;;;5130360;27;20238;-72
2021/08/12 08:44:34;;;;;;;4.93;3.77;;;23.30;59.00;;;;;;5130672;27;20203;-71
2021/08/12 08:47:07;;;;;;;3.97;3.60;;;23.30;59.00;;;;;;5111090;27;20191;-71
2021/08/12 08:49:46;;;;;;;3.70;3.30;;;23.30;59.20;;;;;;5112900;27;20259;-71
2021/08/12 08:52:15;;;;;;;4.27;3.87;;;23.30;59.20;;;;;;5129662;27;20597;-71
2021/08/12 08:54:46;;;;;;;4.17;3.77;;;23.30;59.30;;;;;;5112841;27;20226;-71
2021/08/12 08:57:20;;;;;;;4.33;3.70;;;23.30;59.30;;;;;;5128767;27;20223;-70
2021/08/12 08:59:52;;;;;;;4.57;3.57;;;23.30;59.50;;;;;;5129939;27;20200;-70
2021/08/12 09:02:21;;;;;;;5.20;3.93;;;23.30;59.30;;;;;;5130171;27;20192;-70
2021/08/12 09:04:54;;;;;;;3.60;3.30;;;23.30;59.30;;;;;;5130300;27;20762;-70
2021/08/12 09:07:26;;;;;;;4.43;4.00;;;23.40;59.50;;;;;;5132182;27;20227;-70
2021/08/12 09:09:59;;;;;;;4.20;3.83;;;23.30;59.30;;;;;;5129438;27;20207;-71
2021/08/12 09:12:31;;;;;;;3.70;3.40;;;23.40;59.50;;;;;;5121535;27;20183;-72
2021/08/12 09:15:07;;;;;;;3.60;3.30;;;23.40;59.50;;;;;;5113366;27;20295;-72
2021/08/12 09:17:39;;;;;;;4.03;3.63;;;23.40;59.40;;;;;;5133549;27;20814;-71
2021/08/12 09:20:14;;;;;;;4.03;3.30;;;23.40;59.40;;;;;;5129011;27;20219;-71
2021/08/12 09:23:09;;;;;;;3.70;3.40;;;23.40;59.40;;;;;;5130726;27;20207;-71
2021/08/12 09:25:50;;;;;;;3.50;3.20;;;23.40;59.40;;;;;;5120055;27;20691;-71
2021/08/12 09:28:42;;;;;;;4.10;3.70;;;23.40;59.50;;;;;;5114386;27;20205;-71
2021/08/12 09:31:15;;;;;;;3.90;3.50;;;23.40;59.50;;;;;;5103585;28;20184;-71
2021/08/12 09:33:55;;;;;;;3.73;3.43;;;23.40;59.50;;;;;;5110982;27;20538;-71
2021/08/12 09:36:34;;;;;;;4.23;3.80;;;23.40;59.50;;;;;;5128964;27;20223;-70
2021/08/12 09:39:20;;;;;;;4.60;3.40;;;23.40;59.50;;;;;;5128533;27;20259;-70
2021/08/12 09:41:52;;;;;;;3.60;3.30;;;23.50;59.50;;;;;;5118731;27;20670;-71
2021/08/12 09:44:52;;;;;;;4.20;3.67;;;23.50;59.70;;;;;;5097736;27;20195;-71
2021/08/12 09:47:29;;;;;;;4.10;3.47;;;23.50;59.60;;;;;;5130670;27;20207;-71
2021/08/12 09:50:01;;;;;;;3.80;3.50;;;23.60;59.80;;;;;;5129268;28;20200;-71
2021/08/12 09:52:37;;;;;;;3.93;3.57;;;23.50;59.80;;;;;;5128970;27;20241;-70
2021/08/12 09:55:17;;;;;;;3.20;3.00;;;23.60;60.00;;;;;;5113012;27;20685;-70
2021/08/12 09:58:08;;;;;;;4.17;3.40;;;23.60;60.10;;;;;;5127984;27;20212;-70
2021/08/12 10:00:45;;;;;;;3.60;3.30;;;23.60;60.10;;;;;;5129741;27;20221;-70
2021/08/12 10:03:36;;;;;;;3.80;3.50;;;23.60;60.20;;;;;;5110745;28;20194;-70
2021/08/12 10:06:20;;;;;;;4.07;3.50;;;23.60;60.30;;;;;;5112727;27;20268;-71
2021/08/12 10:08:51;;;;;;;3.70;3.23;;;23.60;60.10;;;;;;5133169;27;20292;-71
2021/08/12 10:11:27;;;;;;;3.47;3.17;;;23.60;60.40;;;;;;5117119;27;20613;-71
2021/08/12 10:14:06;;;;;;;3.70;3.27;;;23.70;60.40;;;;;;5132664;27;20192;-71
2021/08/12 10:16:36;;;;;;;4.00;3.50;;;23.70;60.50;;;;;;5115994;27;20215;-70
2021/08/12 10:19:11;;;;;;;4.20;3.03;;;23.70;60.60;;;;;;5115245;27;20223;-71
2021/08/12 10:21:40;;;;;;;3.90;3.50;;;23.70;60.60;;;;;;5115717;27;20563;-71
2021/08/12 10:24:12;;;;;;;3.17;2.90;;;23.70;60.70;;;;;;5114318;27;20195;-71
2021/08/12 10:26:49;;;;;;;3.57;3.07;;;23.80;60.80;;;;;;5114607;27;20210;-71
2021/08/12 10:29:22;;;;;;;3.83;3.53;;;23.80;61.00;;;;;;5132809;27;20199;-71
2021/08/12 10:32:04;;;;;;;4.07;3.67;;;23.80;60.90;;;;;;5097716;27;20229;-71
2021/08/12 10:34:39;;;;;;;3.80;3.50;;;23.80;60.90;;;;;;5115904;27;20214;-71
2021/08/12 10:37:10;;;;;;;4.17;3.40;;;23.80;61.10;;;;;;5141415;27;20203;-72
2021/08/12 10:39:42;;;;;;;4.03;3.73;;;23.80;61.20;;;;;;5116618;27;20215;-72
2021/08/12 10:42:13;;;;;;;3.53;3.23;;;23.80;61.20;;;;;;5133149;27;20191;-72
2021/08/12 10:44:42;;;;;;;4.37;3.53;;;23.90;61.30;;;;;;5101162;27;20203;-72
2021/08/12 10:47:49;;;;;;;3.40;3.10;;;23.90;61.30;;;;;;5097780;27;20206;-71
2021/08/12 10:50:38;;;;;;;3.30;3.00;;;23.90;61.60;;;;;;5129634;27;20252;-70
2021/08/12 10:53:16;;;;;;;6.00;3.80;;;23.90;61.70;;;;;;5115405;27;20206;-70
2021/08/12 10:56:05;;;;;;;4.57;3.43;;;23.90;61.60;;;;;;5131514;27;20225;-71
2021/08/12 10:58:51;;;;;;;4.17;3.77;;;24.00;61.70;;;;;;5114222;27;20185;-71
2021/08/12 11:01:36;;;;;;;3.70;3.40;;;24.00;61.60;;;;;;5133261;27;20207;-71
2021/08/12 11:04:55;;;;;;;6.43;3.57;;;24.00;61.80;;;;;;5116347;27;20664;-71
2021/08/12 11:07:40;;;;;;;3.47;3.17;;;24.00;61.90;;;;;;5112306;27;20285;-71
2021/08/12 11:10:15;;;;;;;3.43;3.13;;;24.00;61.90;;;;;;5121193;27;20207;-70
2021/08/12 11:13:03;;;;;;;3.77;3.37;;;24.00;61.90;;;;;;5112855;27;20199;-71
2021/08/12 11:15:42;;;;;;;3.30;3.00;;;24.00;62.10;;;;;;5112288;27;20223;-71
2021/08/12 11:18:16;;;;;;;4.50;3.50;;;24.10;61.90;;;;;;5131591;27;20311;-70
2021/08/12 11:20:46;;;;;;;3.63;3.33;;;24.10;61.90;;;;;;5131904;27;20215;-71
2021/08/12 11:23:25;;;;;;;3.73;3.43;;;24.10;62.10;;;;;;5115857;27;20195;-71
2021/08/12 11:26:08;;;;;;;4.10;3.70;;;24.10;62.10;;;;;;5115990;27;20672;-72
2021/08/12 11:28:41;;;;;;;3.60;3.30;;;24.10;62.30;;;;;;5114277;27;20642;-71
2021/08/12 11:31:30;;;;;;;3.33;3.03;;;24.20;62.30;;;;;;5131181;27;20215;-71
2021/08/12 11:34:14;;;;;;;4.23;3.83;;;24.20;62.50;;;;;;5113047;27;20215;-72
2021/08/12 11:37:04;;;;;;;3.63;3.33;;;24.20;62.40;;;;;;5130753;27;20203;-72
2021/08/12 11:40:02;;;;;;;3.63;3.33;;;24.20;62.70;;;;;;5127634;27;20212;-72
2021/08/12 11:43:04;;;;;;;3.37;3.07;;;24.30;62.50;;;;;;5126506;27;20239;-72
2021/08/12 11:45:36;;;;;;;3.90;3.60;;;24.30;62.60;;;;;;5131071;27;20216;-72
2021/08/12 11:48:08;;;;;;;3.80;3.50;;;24.30;62.70;;;;;;5113873;27;20198;-72
2021/08/12 11:50:41;;;;;;;4.13;3.73;;;24.30;62.70;;;;;;5130201;27;20203;-72
2021/08/12 11:53:08;;;;;;;3.23;3.03;;;24.30;62.80;;;;;;5130442;27;20219;-72
2021/08/12 11:55:41;;;;;;;3.67;3.37;;;24.30;62.80;;;;;;5130321;27;20222;-72
2021/08/12 11:58:17;;;;;;;3.77;3.27;;;24.40;62.90;;;;;;5132603;27;20194;-72
2021/08/12 12:00:48;;;;;;;3.90;3.60;;;24.40;62.90;;;;;;5111173;27;20282;-71
2021/08/12 12:03:30;;;;;;;3.70;3.40;;;24.40;62.80;;;;;;5112468;27;20710;-71
2021/08/12 12:05:58;;;;;;;3.63;3.33;;;24.40;63.00;;;;;;5111904;27;20200;-71
2021/08/12 12:08:29;;;;;;;4.43;3.60;;;24.40;62.80;;;;;;5129452;27;20246;-71
2021/08/12 12:11:12;;;;;;;4.00;3.60;;;24.50;63.00;;;;;;5130442;27;20191;-71
2021/08/12 12:13:43;;;;;;;4.27;3.93;;;24.50;63.10;;;;;;5110102;27;20229;-71
2021/08/12 12:16:13;;;;;;;4.17;3.77;;;24.50;63.10;;;;;;5131551;27;20231;-71
2021/08/12 12:18:46;;;;;;;3.73;3.43;;;24.50;63.10;;;;;;5112444;27;20673;-71
2021/08/12 12:21:29;;;;;;;4.03;3.70;;;24.60;63.10;;;;;;5130038;27;20303;-71
2021/08/12 12:24:06;;;;;;;4.00;3.70;;;24.60;63.10;;;;;;5129263;27;20265;-72
2021/08/12 12:26:58;;;;;;;3.83;3.53;;;24.60;63.10;;;;;;5125964;27;20206;-72
2021/08/12 12:29:30;;;;;;;3.90;3.60;;;24.60;63.20;;;;;;5129767;27;20868;-72
2021/08/12 12:32:02;;;;;;;3.93;3.63;;;24.60;63.20;;;;;;5113236;27;20207;-71
2021/08/12 12:35:03;;;;;;;3.90;3.60;;;24.60;63.10;;;;;;5104688;27;20194;-71
2021/08/12 12:37:35;;;;;;;4.10;3.80;;;24.70;63.20;;;;;;5101417;27;20247;-71
2021/08/12 12:40:09;;;;;;;3.90;3.60;;;24.70;63.30;;;;;;5137000;27;20194;-71
2021/08/12 12:42:39;;;;;;;3.93;3.63;;;24.70;63.20;;;;;;5128707;27;20198;-70
2021/08/12 12:45:22;;;;;;;4.03;3.73;;;24.70;63.10;;;;;;5128597;27;20192;-71
2021/08/12 12:48:15;;;;;;;3.93;3.57;;;24.70;63.10;;;;;;5128717;27;20192;-72
2021/08/12 12:50:52;;;;;;;3.70;3.40;;;24.70;63.10;;;;;;5129328;27;20191;-71
2021/08/12 12:53:41;;;;;;;3.83;3.53;;;24.80;63.20;;;;;;5127900;27;20207;-71
2021/08/12 12:56:20;;;;;;;4.03;3.70;;;24.70;63.10;;;;;;5111502;27;20207;-72
2021/08/12 12:58:53;;;;;;;3.97;3.63;;;24.80;63.20;;;;;;5112787;27;20202;-72
2021/08/12 13:01:30;;;;;;;3.67;3.37;;;24.80;63.20;;;;;;5128943;27;20207;-72
2021/08/12 13:04:02;;;;;;;3.47;3.17;;;24.80;63.20;;;;;;5129850;27;20553;-72
2021/08/12 13:06:43;;;;;;;4.10;3.80;;;24.90;63.20;;;;;;5130299;27;20661;-70
2021/08/12 13:09:52;;;;;;;3.83;3.50;;;24.90;63.20;;;;;;5108145;27;20663;-70
2021/08/12 13:12:28;;;;;;;3.60;3.30;;;24.90;63.20;;;;;;5109684;27;20215;-72
2021/08/12 13:15:25;;;;;;;3.37;3.07;;;24.90;63.10;;;;;;5112270;28;20198;-71
2021/08/12 13:18:02;;;;;;;4.00;3.70;;;24.90;63.00;;;;;;5115864;27;20561;-72
2021/08/12 13:20:45;;;;;;;3.90;3.60;;;24.90;63.00;;;;;;5113662;28;20231;-71
2021/08/12 13:23:16;;;;;;;3.93;3.53;;;24.90;63.00;;;;;;5106112;28;20207;-72
2021/08/12 13:25:55;;;;;;;3.77;3.47;;;24.90;63.00;;;;;;5108547;28;20290;-70
2021/08/12 13:28:34;;;;;;;3.77;3.43;;;25.00;63.00;;;;;;5110400;28;20801;-70
2021/08/12 13:31:17;;;;;;;3.53;3.23;;;25.00;62.90;;;;;;5110035;28;20192;-71